createdAt,value
2018-05-12T00:00:31.755Z,9.10
2018-05-12T00:01:31.778Z,11.20
2018-05-12T00:02:31.799Z,8.70
2018-05-12T00:03:31.821Z,9.60
2018-05-12T00:04:31.849Z,8.50
2018-05-12T00:05:31.869Z,9.10
2018-05-12T00:06:31.889Z,11.70
2018-05-12T00:07:31.916Z,10.20
2018-05-12T00:08:31.933Z,9.60
2018-05-12T00:09:31.957Z,8.80
2018-05-12T00:10:32.057Z,11.30
2018-05-12T00:11:32.000Z,8.30
2018-05-12T00:12:32.023Z,9.30
2018-05-12T00:13:32.044Z,10.10
2018-05-12T00:14:32.067Z,8.50
2018-05-12T00:15:32.089Z,9.60
2018-05-12T00:16:32.111Z,9.90
2018-05-12T00:17:32.134Z,9.30
2018-05-12T00:18:32.156Z,8.70
2018-05-12T00:19:32.178Z,10.70
2018-05-12T00:20:32.200Z,9.70
2018-05-12T00:21:32.223Z,9.70
2018-05-12T00:22:32.244Z,9.20
2018-05-12T00:23:32.270Z,10.10
2018-05-12T00:24:32.289Z,10.70
2018-05-12T00:25:32.312Z,10.80
2018-05-12T00:26:32.334Z,9.60
2018-05-12T00:27:32.435Z,10.90
2018-05-12T00:28:32.378Z,8.60
2018-05-12T00:29:32.401Z,10.00
2018-05-12T00:30:32.423Z,9.00
2018-05-12T00:31:32.445Z,9.80
2018-05-12T00:32:32.468Z,11.70
2018-05-12T00:33:32.489Z,12.30
2018-05-12T00:34:32.512Z,13.20
2018-05-12T00:35:32.533Z,15.10
2018-05-12T00:36:32.557Z,16.10
2018-05-12T00:37:32.580Z,17.00
2018-05-12T00:38:32.601Z,18.70
2018-05-12T00:39:32.622Z,19.30
2018-05-12T00:40:32.644Z,17.50
2018-05-12T00:41:32.668Z,15.20
2018-05-12T00:42:32.689Z,16.30
2018-05-12T00:43:32.711Z,13.40
2018-05-12T00:44:32.733Z,13.40
2018-05-12T00:45:32.757Z,12.40
2018-05-12T00:46:32.778Z,11.50
2018-05-12T00:47:32.799Z,10.70
2018-05-12T00:48:32.822Z,12.70
2018-05-12T00:49:32.845Z,9.90
2018-05-12T00:50:32.866Z,9.40
2018-05-12T00:51:32.888Z,12.00
2018-05-12T00:52:32.911Z,12.00
2018-05-12T00:53:32.933Z,9.80
2018-05-12T00:54:32.956Z,9.40
2018-05-12T00:55:32.977Z,12.40
2018-05-12T00:56:32.999Z,8.70
2018-05-12T00:57:33.021Z,10.80
2018-05-12T00:58:33.045Z,10.10
2018-05-12T00:59:33.067Z,12.20
2018-05-12T01:00:33.089Z,11.30
2018-05-12T01:01:33.110Z,9.40
2018-05-12T01:02:33.133Z,13.00
2018-05-12T01:03:33.155Z,9.70
2018-05-12T01:04:33.177Z,10.40
2018-05-12T01:05:33.199Z,9.60
2018-05-12T01:06:33.222Z,11.80
2018-05-12T01:07:33.243Z,11.00
2018-05-12T01:08:33.266Z,10.00
2018-05-12T01:09:33.289Z,10.70
2018-05-12T01:10:33.311Z,11.50
2018-05-12T01:11:33.332Z,10.50
2018-05-12T01:12:33.356Z,11.60
2018-05-12T01:13:33.379Z,10.00
2018-05-12T01:14:33.400Z,9.70
2018-05-12T01:15:33.421Z,11.10
2018-05-12T01:16:33.516Z,8.80
2018-05-12T01:17:33.466Z,10.80
2018-05-12T01:18:33.488Z,9.20
2018-05-12T01:19:33.510Z,11.90
2018-05-12T01:20:33.533Z,10.40
2018-05-12T01:21:33.556Z,10.90
2018-05-12T01:22:33.577Z,9.10
2018-05-12T01:23:33.602Z,11.90
2018-05-12T01:24:33.622Z,9.20
2018-05-12T01:25:33.643Z,10.30
2018-05-12T01:26:33.667Z,10.50
2018-05-12T01:27:33.689Z,9.90
2018-05-12T01:28:33.710Z,12.00
2018-05-12T01:29:33.738Z,12.70
2018-05-12T01:30:33.759Z,9.30
2018-05-12T01:31:33.777Z,11.20
2018-05-12T01:32:33.800Z,10.80
2018-05-12T01:33:33.821Z,12.60
2018-05-12T01:34:33.844Z,11.90
2018-05-12T01:35:33.866Z,11.10
2018-05-12T01:36:33.888Z,10.80
2018-05-12T01:37:33.911Z,11.20
2018-05-12T01:38:33.933Z,11.20
2018-05-12T01:39:33.957Z,10.70
2018-05-12T01:40:33.981Z,10.90
2018-05-12T01:41:33.998Z,10.10
2018-05-12T01:42:34.022Z,11.20
2018-05-12T01:43:34.042Z,11.40
2018-05-12T01:44:34.065Z,10.00
2018-05-12T01:45:34.087Z,13.80
2018-05-12T01:46:34.109Z,10.70
2018-05-12T01:47:34.132Z,11.40
2018-05-12T01:48:34.154Z,10.80
2018-05-12T01:49:34.177Z,11.30
2018-05-12T01:50:34.198Z,11.20
2018-05-12T01:51:34.219Z,11.60
2018-05-12T01:52:34.242Z,13.20
2018-05-12T01:53:34.264Z,11.00
2018-05-12T01:54:34.287Z,11.00
2018-05-12T01:55:34.308Z,11.50
2018-05-12T01:56:34.331Z,11.20
2018-05-12T01:57:34.353Z,11.60
2018-05-12T01:58:34.375Z,11.90
2018-05-12T01:59:34.396Z,11.30
2018-05-12T02:00:34.454Z,12.50
2018-05-12T02:01:34.441Z,10.00
2018-05-12T02:02:34.463Z,10.00
2018-05-12T02:03:34.485Z,11.30
2018-05-12T02:04:34.507Z,12.40
2018-05-12T02:05:34.529Z,11.00
2018-05-12T02:06:34.552Z,10.60
2018-05-12T02:07:34.574Z,11.80
2018-05-12T02:08:34.595Z,11.80
2018-05-12T02:09:34.617Z,12.00
2018-05-12T02:10:34.640Z,11.00
2018-05-12T02:11:34.661Z,12.30
2018-05-12T02:12:34.686Z,10.10
2018-05-12T02:13:34.709Z,11.90
2018-05-12T02:14:34.728Z,15.00
2018-05-12T02:15:34.750Z,13.10
2018-05-12T02:16:34.772Z,12.00
2018-05-12T02:17:34.794Z,9.70
2018-05-12T02:18:34.817Z,12.80
2018-05-12T02:19:34.838Z,11.50
2018-05-12T02:20:34.861Z,11.80
2018-05-12T02:21:34.883Z,11.00
2018-05-12T02:22:34.905Z,12.50
2018-05-12T02:23:34.930Z,12.00
2018-05-12T02:24:34.949Z,11.40
2018-05-12T02:25:34.972Z,12.70
2018-05-12T02:26:34.993Z,10.80
2018-05-12T02:27:35.015Z,12.20
2018-05-12T02:28:35.039Z,11.60
2018-05-12T02:29:35.060Z,10.90
2018-05-12T02:30:35.082Z,11.20
2018-05-12T02:31:35.103Z,10.80
2018-05-12T02:32:35.129Z,12.90
2018-05-12T02:33:35.148Z,11.20
2018-05-12T02:34:35.170Z,14.10
2018-05-12T02:35:35.192Z,11.50
2018-05-12T02:36:35.215Z,12.20
2018-05-12T02:37:35.237Z,11.00
2018-05-12T02:38:35.261Z,11.10
2018-05-12T02:39:35.281Z,10.90
2018-05-12T02:40:35.310Z,10.70
2018-05-12T02:41:35.336Z,13.80
2018-05-12T02:42:35.358Z,11.20
2018-05-12T02:43:35.369Z,11.00
2018-05-12T02:44:35.394Z,11.60
2018-05-12T02:45:35.415Z,12.30
2018-05-12T02:46:35.437Z,12.70
2018-05-12T02:47:35.458Z,13.00
2018-05-12T02:48:35.482Z,11.60
2018-05-12T02:49:35.503Z,12.30
2018-05-12T02:50:35.524Z,13.40
2018-05-12T02:51:35.546Z,14.80
2018-05-12T02:52:35.571Z,13.90
2018-05-12T02:53:35.597Z,11.80
2018-05-12T02:54:35.613Z,11.50
2018-05-12T02:55:35.639Z,13.20
2018-05-12T02:56:35.658Z,11.40
2018-05-12T02:57:35.683Z,12.90
2018-05-12T02:58:35.702Z,10.80
2018-05-12T02:59:35.723Z,10.80
2018-05-12T03:00:35.746Z,12.00
2018-05-12T03:01:35.768Z,12.40
2018-05-12T03:02:35.791Z,11.10
2018-05-12T03:03:35.813Z,11.60
2018-05-12T03:04:35.836Z,12.20
2018-05-12T03:05:35.860Z,11.60
2018-05-12T03:06:35.880Z,13.20
2018-05-12T03:07:35.901Z,11.50
2018-05-12T03:08:35.923Z,12.50
2018-05-12T03:09:35.946Z,12.50
2018-05-12T03:10:35.968Z,12.60
2018-05-12T03:11:35.989Z,12.30
2018-05-12T03:12:36.012Z,12.00
2018-05-12T03:13:36.034Z,12.20
2018-05-12T03:14:36.057Z,13.50
2018-05-12T03:15:36.130Z,13.50
2018-05-12T03:16:36.099Z,11.90
2018-05-12T03:17:36.121Z,11.70
2018-05-12T03:18:36.145Z,14.10
2018-05-12T03:19:36.169Z,11.00
2018-05-12T03:20:36.188Z,14.50
2018-05-12T03:21:36.209Z,15.50
2018-05-12T03:22:36.235Z,11.80
2018-05-12T03:23:36.255Z,14.20
2018-05-12T03:24:36.275Z,12.70
2018-05-12T03:25:36.298Z,12.90
2018-05-12T03:26:36.320Z,14.30
2018-05-12T03:27:36.341Z,12.80
2018-05-12T03:28:36.364Z,13.80
2018-05-12T03:29:36.385Z,14.10
2018-05-12T03:30:36.413Z,14.50
2018-05-12T03:31:36.430Z,12.10
2018-05-12T03:32:36.451Z,13.20
2018-05-12T03:33:36.558Z,14.60
2018-05-12T03:34:36.496Z,14.90
2018-05-12T03:35:36.517Z,14.20
2018-05-12T03:36:36.540Z,13.10
2018-05-12T03:37:36.561Z,14.00
2018-05-12T03:38:36.583Z,13.10
2018-05-12T03:39:36.604Z,13.60
2018-05-12T03:40:36.626Z,13.50
2018-05-12T03:41:36.650Z,16.50
2018-05-12T03:42:36.671Z,13.50
2018-05-12T03:43:36.692Z,15.80
2018-05-12T03:44:36.714Z,13.50
2018-05-12T03:45:36.739Z,14.80
2018-05-12T03:46:36.758Z,13.60
2018-05-12T03:47:36.779Z,12.50
2018-05-12T03:48:36.801Z,13.00
2018-05-12T03:49:36.823Z,15.80
2018-05-12T03:50:36.845Z,13.40
2018-05-12T03:51:36.867Z,17.40
2018-05-12T03:52:36.888Z,15.10
2018-05-12T03:53:36.910Z,13.80
2018-05-12T03:54:36.932Z,14.70
2018-05-12T03:55:37.203Z,16.80
2018-05-12T03:56:36.976Z,15.80
2018-05-12T03:57:37.001Z,14.20
2018-05-12T03:58:37.019Z,13.00
2018-05-12T03:59:37.040Z,12.90
2018-05-12T04:00:37.063Z,13.10
2018-05-12T04:01:37.085Z,13.20
2018-05-12T04:02:37.105Z,16.20
2018-05-12T04:03:37.129Z,14.70
2018-05-12T04:04:37.149Z,15.10
2018-05-12T04:05:37.175Z,12.90
2018-05-12T04:06:37.194Z,15.60
2018-05-12T04:07:37.214Z,13.40
2018-05-12T04:08:37.312Z,12.80
2018-05-12T04:09:37.258Z,14.30
2018-05-12T04:10:37.280Z,13.90
2018-05-12T04:11:37.302Z,13.40
2018-05-12T04:12:37.324Z,12.90
2018-05-12T04:13:37.344Z,14.00
2018-05-12T04:14:37.367Z,14.00
2018-05-12T04:15:37.387Z,16.70
2018-05-12T04:16:37.410Z,16.40
2018-05-12T04:17:37.433Z,14.70
2018-05-12T04:18:37.453Z,14.00
2018-05-12T04:19:37.474Z,14.50
2018-05-12T04:20:37.497Z,13.10
2018-05-12T04:21:37.519Z,15.10
2018-05-12T04:22:37.540Z,14.00
2018-05-12T04:23:37.565Z,14.20
2018-05-12T04:24:37.582Z,13.90
2018-05-12T04:25:37.604Z,13.80
2018-05-12T04:26:37.627Z,14.60
2018-05-12T04:27:37.648Z,15.60
2018-05-12T04:28:37.672Z,14.60
2018-05-12T04:29:37.693Z,16.00
2018-05-12T04:30:37.717Z,17.30
2018-05-12T04:31:37.735Z,14.80
2018-05-12T04:32:37.762Z,15.80
2018-05-12T04:33:37.778Z,13.90
2018-05-12T04:34:37.803Z,13.00
2018-05-12T04:35:37.822Z,13.90
2018-05-12T04:36:37.849Z,14.00
2018-05-12T04:37:37.865Z,14.50
2018-05-12T04:38:37.887Z,14.30
2018-05-12T04:39:37.908Z,13.40
2018-05-12T04:40:37.930Z,14.30
2018-05-12T04:41:37.953Z,12.90
2018-05-12T04:42:37.974Z,15.40
2018-05-12T04:43:37.995Z,16.00
2018-05-12T04:44:38.017Z,13.50
2018-05-12T04:45:38.039Z,15.60
2018-05-12T04:46:38.061Z,13.60
2018-05-12T04:47:38.082Z,13.70
2018-05-12T04:48:38.104Z,12.70
2018-05-12T04:49:38.126Z,15.20
2018-05-12T04:50:38.149Z,13.40
2018-05-12T04:51:38.169Z,15.50
2018-05-12T04:52:38.191Z,17.30
2018-05-12T04:53:38.213Z,15.60
2018-05-12T04:54:38.235Z,14.80
2018-05-12T04:55:38.257Z,14.80
2018-05-12T04:56:38.279Z,13.80
2018-05-12T04:57:38.301Z,14.80
2018-05-12T04:58:38.322Z,13.70
2018-05-12T04:59:38.343Z,16.90
2018-05-12T05:00:38.366Z,14.70
2018-05-12T05:01:38.388Z,14.40
2018-05-12T05:02:38.409Z,14.50
2018-05-12T05:03:38.432Z,13.80
2018-05-12T05:04:38.454Z,14.90
2018-05-12T05:05:38.482Z,14.40
2018-05-12T05:06:38.498Z,14.40
2018-05-12T05:07:38.518Z,13.50
2018-05-12T05:08:38.541Z,15.30
2018-05-12T05:09:38.563Z,12.90
2018-05-12T05:10:38.585Z,13.90
2018-05-12T05:11:38.606Z,15.30
2018-05-12T05:12:38.631Z,13.70
2018-05-12T05:13:38.656Z,15.10
2018-05-12T05:14:38.673Z,13.50
2018-05-12T05:15:38.694Z,13.90
2018-05-12T05:16:38.721Z,14.40
2018-05-12T05:17:38.740Z,14.80
2018-05-12T05:18:38.761Z,14.50
2018-05-12T05:19:38.785Z,15.40
2018-05-12T05:20:38.805Z,15.60
2018-05-12T05:21:38.828Z,13.30
2018-05-12T05:22:38.849Z,13.60
2018-05-12T05:23:38.872Z,12.30
2018-05-12T05:24:38.894Z,13.30
2018-05-12T05:28:21.525Z,13.70
2018-05-12T05:28:22.664Z,12.00
2018-05-12T05:29:22.685Z,11.70
2018-05-12T05:30:22.709Z,15.70
2018-05-12T05:31:22.734Z,13.80
2018-05-12T05:32:22.754Z,13.30
2018-05-12T05:33:22.776Z,13.60
2018-05-12T05:34:22.798Z,13.50
2018-05-12T05:35:22.824Z,12.00
2018-05-12T05:36:22.844Z,13.50
2018-05-12T05:37:22.867Z,11.90
2018-05-12T05:38:22.897Z,12.80
2018-05-12T05:39:22.913Z,11.40
2018-05-12T05:40:22.936Z,11.60
2018-05-12T05:41:22.959Z,12.50
2018-05-12T05:42:22.982Z,12.00
2018-05-12T05:43:23.004Z,14.20
2018-05-12T05:44:23.029Z,11.50
2018-05-12T05:45:23.053Z,13.90
2018-05-12T05:46:23.072Z,12.50
2018-05-12T05:47:23.101Z,14.00
2018-05-12T05:48:23.122Z,11.60
2018-05-12T05:49:23.145Z,14.60
2018-05-12T05:50:23.169Z,12.10
2018-05-12T05:51:23.192Z,11.70
2018-05-12T05:52:23.215Z,10.90
2018-05-12T05:53:23.239Z,11.20
2018-05-12T05:54:23.262Z,12.30
2018-05-12T05:55:23.287Z,11.60
2018-05-12T05:56:23.310Z,11.80
2018-05-12T05:57:23.335Z,12.60
2018-05-12T05:58:23.356Z,12.30
2018-05-12T05:59:23.481Z,13.00
2018-05-12T06:00:23.407Z,10.70
2018-05-12T06:01:23.429Z,11.40
2018-05-12T06:02:23.453Z,11.00
2018-05-12T06:03:23.478Z,11.20
2018-05-12T06:04:23.502Z,11.70
2018-05-12T06:05:23.525Z,10.80
2018-05-12T06:06:23.549Z,10.00
2018-05-12T06:07:23.577Z,10.70
2018-05-12T06:08:23.598Z,11.80
2018-05-12T06:09:23.622Z,12.30
2018-05-12T06:10:23.645Z,10.50
2018-05-12T06:11:23.670Z,11.30
2018-05-12T06:12:23.695Z,12.50
2018-05-12T06:13:23.720Z,11.20
2018-05-12T06:14:23.744Z,12.60
2018-05-12T06:15:23.768Z,10.60
2018-05-12T06:16:23.793Z,11.60
2018-05-12T06:17:23.817Z,11.30
2018-05-12T06:18:23.841Z,11.50
2018-05-12T06:19:23.867Z,10.90
2018-05-12T06:20:23.897Z,10.80
2018-05-12T06:21:23.916Z,10.70
2018-05-12T06:22:23.940Z,10.50
2018-05-12T06:23:23.967Z,11.00
2018-05-12T06:24:23.991Z,12.20
2018-05-12T06:25:24.015Z,10.90
2018-05-12T06:26:24.041Z,11.50
2018-05-12T06:27:24.070Z,10.80
2018-05-12T06:28:24.091Z,10.50
2018-05-12T06:29:24.115Z,12.50
2018-05-12T06:30:24.139Z,10.80
2018-05-12T06:31:24.165Z,11.70
2018-05-12T06:32:24.191Z,12.80
2018-05-12T06:33:24.219Z,10.90
2018-05-12T06:34:24.244Z,10.30
2018-05-12T06:35:24.266Z,10.30
2018-05-12T06:36:24.292Z,10.10
2018-05-12T06:37:24.318Z,10.30
2018-05-12T06:38:24.343Z,10.90
2018-05-12T06:39:24.369Z,10.00
2018-05-12T06:40:24.396Z,12.20
2018-05-12T06:41:24.421Z,11.20
2018-05-12T06:42:24.447Z,10.50
2018-05-12T06:43:24.474Z,10.40
2018-05-12T06:44:24.500Z,10.80
2018-05-12T06:45:24.525Z,10.20
2018-05-12T06:46:24.549Z,12.10
2018-05-12T06:47:24.576Z,9.90
2018-05-12T06:48:24.601Z,9.60
2018-05-12T06:49:24.628Z,11.60
2018-05-12T06:50:24.654Z,13.30
2018-05-12T06:51:24.680Z,10.90
2018-05-12T06:52:24.706Z,9.30
2018-05-12T06:53:24.732Z,9.70
2018-05-12T06:54:24.758Z,9.70
2018-05-12T06:55:24.785Z,10.30
2018-05-12T06:56:24.811Z,10.00
2018-05-12T06:57:24.840Z,10.20
2018-05-12T06:58:24.865Z,11.90
2018-05-12T06:59:24.891Z,10.80
2018-05-12T07:00:24.918Z,10.20
2018-05-12T07:01:25.021Z,10.20
2018-05-12T07:02:24.973Z,9.70
2018-05-12T07:03:24.996Z,9.90
2018-05-12T07:04:25.025Z,10.20
2018-05-12T07:05:25.053Z,10.70
2018-05-12T07:06:25.118Z,10.10
2018-05-12T07:07:25.104Z,9.50
2018-05-12T07:08:25.132Z,9.00
2018-05-12T07:09:25.159Z,8.90
2018-05-12T07:10:25.186Z,9.00
2018-05-12T07:11:25.213Z,9.50
2018-05-12T07:12:25.273Z,8.80
2018-05-12T07:13:25.268Z,10.00
2018-05-12T07:14:25.318Z,9.70
2018-05-12T07:15:25.325Z,9.50
2018-05-12T07:16:25.352Z,9.00
2018-05-12T07:17:25.380Z,9.80
2018-05-12T07:18:25.407Z,10.20
2018-05-12T07:19:25.528Z,8.80
2018-05-12T07:20:25.462Z,12.10
2018-05-12T07:21:25.490Z,9.50
2018-05-12T07:22:25.517Z,8.90
2018-05-12T07:23:25.545Z,9.40
2018-05-12T07:24:25.574Z,9.50
2018-05-12T07:25:25.607Z,10.30
2018-05-12T07:26:25.629Z,10.50
2018-05-12T07:27:25.657Z,9.70
2018-05-12T07:28:25.686Z,9.10
2018-05-12T07:29:25.715Z,9.10
2018-05-12T07:30:25.742Z,8.60
2018-05-12T07:31:25.771Z,9.90
2018-05-12T07:32:25.800Z,9.00
2018-05-12T07:33:25.829Z,8.90
2018-05-12T07:34:25.856Z,9.90
2018-05-12T07:35:25.885Z,8.50
2018-05-12T07:36:25.914Z,11.60
2018-05-12T07:37:25.943Z,9.50
2018-05-12T07:38:25.971Z,10.20
2018-05-12T07:39:25.999Z,9.10
2018-05-12T07:40:26.029Z,9.40
2018-05-12T07:41:26.059Z,9.50
2018-05-12T07:42:26.087Z,9.20
2018-05-12T07:43:26.115Z,9.90
2018-05-12T07:44:26.146Z,8.30
2018-05-12T07:45:26.177Z,8.50
2018-05-12T07:46:26.207Z,10.60
2018-05-12T07:47:26.233Z,9.60
2018-05-12T07:48:26.262Z,10.50
2018-05-12T07:49:26.292Z,9.20
2018-05-12T07:50:26.321Z,9.40
2018-05-12T07:51:26.360Z,8.90
2018-05-12T07:52:26.381Z,10.30
2018-05-12T07:53:26.412Z,10.40
2018-05-12T07:54:26.440Z,9.50
2018-05-12T07:55:26.470Z,10.10
2018-05-12T07:56:26.502Z,8.50
2018-05-12T07:57:26.531Z,9.10
2018-05-12T07:58:26.560Z,9.00
2018-05-12T07:59:26.590Z,9.80
2018-05-12T08:00:26.621Z,8.30
2018-05-12T08:01:26.652Z,9.20
2018-05-12T08:02:26.681Z,9.40
2018-05-12T08:03:26.787Z,9.20
2018-05-12T08:04:26.746Z,7.80
2018-05-12T08:05:26.774Z,7.40
2018-05-12T08:06:26.805Z,8.50
2018-05-12T08:07:26.835Z,8.00
2018-05-12T08:08:26.867Z,8.30
2018-05-12T08:09:26.899Z,7.90
2018-05-12T08:10:26.930Z,8.20
2018-05-12T08:11:26.961Z,9.80
2018-05-12T08:12:26.993Z,8.30
2018-05-12T08:13:27.025Z,7.80
2018-05-12T08:14:27.055Z,7.90
2018-05-12T08:15:27.087Z,7.40
2018-05-12T08:16:27.120Z,8.10
2018-05-12T08:17:27.155Z,7.30
2018-05-12T08:18:27.182Z,7.60
2018-05-12T08:19:27.216Z,7.90
2018-05-12T08:20:27.247Z,6.90
2018-05-12T08:21:27.279Z,7.30
2018-05-12T08:22:27.311Z,7.50
2018-05-12T08:23:27.344Z,7.60
2018-05-12T08:24:27.381Z,7.50
2018-05-12T08:25:27.408Z,7.20
2018-05-12T08:26:27.440Z,7.60
2018-05-12T08:27:27.475Z,7.30
2018-05-12T08:28:27.506Z,7.60
2018-05-12T08:29:27.538Z,7.30
2018-05-12T08:30:27.568Z,6.80
2018-05-12T08:31:27.604Z,7.60
2018-05-12T08:32:27.634Z,7.70
2018-05-12T08:33:27.667Z,8.50
2018-05-12T08:34:27.698Z,7.20
2018-05-12T08:35:27.732Z,7.90
2018-05-12T08:36:27.765Z,6.80
2018-05-12T08:37:27.797Z,10.60
2018-05-12T08:38:27.830Z,8.40
2018-05-12T08:39:27.861Z,7.40
2018-05-12T08:40:27.899Z,8.90
2018-05-12T08:41:27.930Z,6.90
2018-05-12T08:42:27.963Z,7.90
2018-05-12T08:43:27.993Z,6.50
2018-05-12T08:44:28.027Z,9.60
2018-05-12T08:45:28.059Z,7.80
2018-05-12T08:46:28.092Z,6.90
2018-05-12T08:47:28.124Z,8.90
2018-05-12T08:48:28.157Z,6.40
2018-05-12T08:49:28.191Z,5.60
2018-05-12T08:50:28.223Z,8.00
2018-05-12T08:51:28.256Z,7.20
2018-05-12T08:52:28.292Z,7.20
2018-05-12T08:53:28.323Z,6.10
2018-05-12T08:54:28.356Z,6.50
2018-05-12T08:55:28.388Z,4.70
2018-05-12T08:56:28.421Z,5.30
2018-05-12T08:57:28.455Z,5.70
2018-05-12T08:58:28.487Z,6.20
2018-05-12T08:59:28.521Z,4.30
2018-05-12T09:00:28.554Z,3.60
2018-05-12T09:01:28.673Z,5.40
2018-05-12T09:02:28.621Z,5.00
2018-05-12T09:03:28.654Z,4.10
2018-05-12T09:04:28.689Z,4.70
2018-05-12T09:05:28.720Z,5.30
2018-05-12T09:06:28.752Z,4.10
2018-05-12T09:07:28.785Z,5.30
2018-05-12T09:08:28.819Z,6.80
2018-05-12T09:09:28.852Z,5.40
2018-05-12T09:10:28.884Z,6.00
2018-05-12T09:11:28.919Z,6.70
2018-05-12T09:12:28.952Z,6.10
2018-05-12T09:13:28.985Z,6.80
2018-05-12T09:14:29.018Z,5.20
2018-05-12T09:15:29.052Z,4.90
2018-05-12T09:16:29.089Z,6.90
2018-05-12T09:17:29.120Z,6.50
2018-05-12T09:18:29.151Z,6.40
2018-05-12T09:19:29.184Z,7.30
2018-05-12T09:20:29.219Z,4.80
2018-05-12T09:21:29.252Z,4.80
2018-05-12T09:22:29.286Z,4.70
2018-05-12T09:23:29.318Z,5.90
2018-05-12T09:24:29.351Z,5.50
2018-05-12T09:25:29.447Z,5.50
2018-05-12T09:26:29.417Z,4.80
2018-05-12T09:27:29.451Z,5.50
2018-05-12T09:28:29.484Z,5.90
2018-05-12T09:29:29.518Z,4.90
2018-05-12T09:30:29.550Z,4.90
2018-05-12T09:31:29.583Z,5.80
2018-05-12T09:32:29.616Z,5.70
2018-05-12T09:33:29.652Z,4.90
2018-05-12T09:34:29.681Z,4.70
2018-05-12T09:35:29.716Z,6.50
2018-05-12T09:36:29.750Z,4.60
2018-05-12T09:37:29.780Z,5.10
2018-05-12T09:38:29.814Z,5.60
2018-05-12T09:39:29.873Z,5.80
2018-05-12T09:40:29.880Z,6.60
2018-05-12T09:41:29.913Z,6.20
2018-05-12T09:42:30.057Z,5.00
2018-05-12T09:43:29.978Z,5.50
2018-05-12T09:44:30.013Z,8.90
2018-05-12T09:45:30.046Z,6.40
2018-05-12T09:46:30.079Z,5.80
2018-05-12T09:47:30.110Z,7.90
2018-05-12T09:48:30.145Z,5.90
2018-05-12T09:49:30.177Z,5.70
2018-05-12T09:50:30.209Z,7.00
2018-05-12T09:51:30.246Z,7.10
2018-05-12T09:52:30.282Z,6.30
2018-05-12T09:53:30.309Z,6.60
2018-05-12T09:54:30.341Z,5.90
2018-05-12T09:55:30.374Z,6.20
2018-05-12T09:56:30.409Z,4.70
2018-05-12T09:57:30.441Z,5.50
2018-05-12T09:58:30.475Z,4.70
2018-05-12T09:59:30.541Z,6.30
2018-05-12T10:00:30.546Z,5.70
2018-05-12T10:01:30.575Z,5.00
2018-05-12T10:02:30.606Z,4.80
2018-05-12T10:03:30.644Z,6.40
2018-05-12T10:04:30.673Z,6.00
2018-05-12T10:05:30.709Z,5.70
2018-05-12T10:06:30.744Z,6.10
2018-05-12T10:07:30.775Z,5.80
2018-05-12T10:08:30.808Z,5.10
2018-05-12T10:09:30.856Z,4.80
2018-05-12T10:10:30.874Z,4.80
2018-05-12T10:11:30.908Z,5.80
2018-05-12T10:12:30.941Z,8.00
2018-05-12T10:13:30.976Z,6.90
2018-05-12T10:14:31.008Z,6.80
2018-05-12T10:15:31.110Z,6.80
2018-05-12T10:16:31.074Z,5.70
2018-05-12T10:17:31.107Z,6.50
2018-05-12T10:18:31.139Z,7.70
2018-05-12T10:19:31.278Z,8.30
2018-05-12T10:20:31.205Z,7.00
2018-05-12T10:21:31.236Z,7.20
2018-05-12T10:22:31.268Z,7.60
2018-05-12T10:23:31.317Z,8.70
2018-05-12T10:24:31.332Z,6.90
2018-05-12T10:25:31.365Z,5.50
2018-05-12T10:26:31.395Z,7.60
2018-05-12T10:27:31.428Z,5.80
2018-05-12T10:28:31.459Z,7.40
2018-05-12T10:29:31.494Z,6.90
2018-05-12T10:30:31.522Z,6.00
2018-05-12T10:31:31.555Z,6.40
2018-05-12T10:32:31.587Z,7.00
2018-05-12T10:33:31.617Z,6.80
2018-05-12T10:34:31.652Z,6.60
2018-05-12T10:35:31.679Z,5.50
2018-05-12T10:36:31.712Z,7.40
2018-05-12T10:37:31.743Z,5.90
2018-05-12T10:38:31.775Z,6.70
2018-05-12T10:39:31.806Z,6.90
2018-05-12T10:40:31.838Z,7.90
2018-05-12T10:41:31.871Z,8.00
2018-05-12T10:42:31.901Z,7.30
2018-05-12T10:43:31.933Z,6.90
2018-05-12T10:44:31.965Z,6.10
2018-05-12T10:45:31.996Z,6.70
2018-05-12T10:46:32.027Z,6.20
2018-05-12T10:47:32.057Z,6.50
2018-05-12T10:48:32.093Z,5.70
2018-05-12T10:49:32.120Z,6.00
2018-05-12T10:50:32.149Z,6.80
2018-05-12T10:51:32.180Z,5.50
2018-05-12T10:52:32.213Z,5.90
2018-05-12T10:53:32.244Z,5.30
2018-05-12T10:54:32.274Z,6.20
2018-05-12T10:55:32.306Z,7.10
2018-05-12T10:56:32.336Z,4.60
2018-05-12T10:57:32.368Z,4.80
2018-05-12T10:58:32.398Z,5.70
2018-05-12T10:59:32.430Z,6.00
2018-05-12T11:00:32.464Z,5.70
2018-05-12T11:01:32.493Z,5.50
2018-05-12T11:02:32.523Z,4.20
2018-05-12T11:03:32.555Z,5.40
2018-05-12T11:04:32.585Z,4.10
2018-05-12T11:05:32.618Z,4.40
2018-05-12T11:06:32.648Z,4.30
2018-05-12T11:07:32.682Z,4.40
2018-05-12T11:08:32.711Z,6.10
2018-05-12T11:09:32.748Z,6.00
2018-05-12T11:10:32.773Z,5.30
2018-05-12T11:11:32.807Z,5.10
2018-05-12T11:12:32.838Z,5.70
2018-05-12T11:13:32.869Z,7.90
2018-05-12T11:14:32.900Z,5.10
2018-05-12T11:15:32.931Z,4.60
2018-05-12T11:16:32.965Z,4.90
2018-05-12T11:17:32.995Z,4.80
2018-05-12T11:18:33.027Z,5.10
2018-05-12T11:19:33.059Z,5.30
2018-05-12T11:20:33.093Z,5.00
2018-05-12T11:21:33.144Z,5.70
2018-05-12T11:22:33.157Z,7.00
2018-05-12T11:23:33.187Z,7.30
2018-05-12T11:24:33.219Z,5.80
2018-05-12T11:25:33.251Z,6.00
2018-05-12T11:26:33.335Z,7.00
2018-05-12T11:27:33.315Z,6.30
2018-05-12T11:28:33.352Z,5.60
2018-05-12T11:29:33.379Z,6.90
2018-05-12T11:30:33.411Z,6.50
2018-05-12T11:31:33.443Z,6.80
2018-05-12T11:32:33.475Z,6.30
2018-05-12T11:33:33.510Z,6.10
2018-05-12T11:34:33.538Z,5.20
2018-05-12T11:35:33.570Z,7.70
2018-05-12T11:36:33.603Z,5.50
2018-05-12T11:37:33.636Z,7.30
2018-05-12T11:38:33.666Z,7.70
2018-05-12T11:39:33.698Z,5.10
2018-05-12T11:40:33.730Z,6.20
2018-05-12T11:41:33.762Z,6.30
2018-05-12T11:42:33.793Z,4.90
2018-05-12T11:43:33.825Z,6.70
2018-05-12T11:44:33.909Z,5.50
2018-05-12T11:45:33.889Z,6.10
2018-05-12T11:46:33.920Z,5.80
2018-05-12T11:47:33.953Z,6.10
2018-05-12T11:48:33.993Z,5.40
2018-05-12T11:49:34.016Z,6.60
2018-05-12T11:50:34.047Z,5.40
2018-05-12T11:51:34.083Z,8.50
2018-05-12T11:52:34.111Z,7.80
2018-05-12T11:53:34.143Z,7.70
2018-05-12T11:54:34.173Z,6.70
2018-05-12T11:55:34.212Z,6.90
2018-05-12T11:56:34.237Z,6.00
2018-05-12T11:57:34.268Z,6.00
2018-05-12T11:58:34.300Z,7.20
2018-05-12T11:59:34.331Z,6.90
2018-05-12T12:00:34.362Z,6.30
2018-05-12T12:01:34.396Z,6.30
2018-05-12T12:02:34.458Z,6.10
2018-05-12T12:03:34.458Z,6.60
2018-05-12T12:04:34.488Z,6.40
2018-05-12T12:05:34.519Z,6.20
2018-05-12T12:06:34.553Z,7.90
2018-05-12T12:07:34.580Z,8.70
2018-05-12T12:08:34.614Z,7.50
2018-05-12T12:09:34.644Z,6.10
2018-05-12T12:10:34.678Z,8.00
2018-05-12T12:11:34.706Z,6.60
2018-05-12T12:12:34.741Z,7.70
2018-05-12T12:13:34.769Z,7.20
2018-05-12T12:14:34.801Z,6.80
2018-05-12T12:15:34.834Z,7.40
2018-05-12T12:16:34.942Z,7.50
2018-05-12T12:17:34.896Z,7.00
2018-05-12T12:18:34.925Z,7.80
2018-05-12T12:19:34.956Z,7.60
2018-05-12T12:20:34.988Z,8.50
2018-05-12T12:21:35.019Z,6.40
2018-05-12T12:22:35.057Z,6.30
2018-05-12T12:23:35.082Z,6.90
2018-05-12T12:24:35.113Z,6.00
2018-05-12T12:25:35.144Z,4.90
2018-05-12T12:26:35.175Z,6.60
2018-05-12T12:27:35.207Z,5.40
2018-05-12T12:28:35.237Z,7.70
2018-05-12T12:29:35.269Z,5.20
2018-05-12T12:30:35.299Z,6.90
2018-05-12T12:31:35.332Z,5.10
2018-05-12T12:32:35.367Z,7.00
2018-05-12T12:33:35.393Z,4.70
2018-05-12T12:34:35.424Z,4.90
2018-05-12T12:35:35.456Z,5.90
2018-05-12T12:36:35.486Z,4.10
2018-05-12T12:37:35.517Z,5.10
2018-05-12T12:38:35.546Z,6.00
2018-05-12T12:39:35.578Z,6.80
2018-05-12T12:40:35.608Z,5.00
2018-05-12T12:41:35.639Z,5.30
2018-05-12T12:42:35.669Z,7.20
2018-05-12T12:43:35.700Z,6.00
2018-05-12T12:44:35.732Z,5.50
2018-05-12T12:45:35.762Z,5.10
2018-05-12T12:46:35.795Z,5.60
2018-05-12T12:47:35.822Z,5.50
2018-05-12T12:48:35.851Z,5.50
2018-05-12T12:49:35.882Z,5.20
2018-05-12T12:50:35.911Z,6.90
2018-05-12T12:51:35.947Z,6.70
2018-05-12T12:52:35.972Z,5.60
2018-05-12T12:53:36.002Z,6.40
2018-05-12T12:54:36.031Z,5.60
2018-05-12T12:55:36.061Z,5.00
2018-05-12T12:56:36.092Z,5.90
2018-05-12T12:57:36.120Z,5.30
2018-05-12T12:58:36.150Z,5.40
2018-05-12T12:59:36.180Z,4.70
2018-05-12T13:00:36.214Z,5.00
2018-05-12T13:01:36.240Z,5.30
2018-05-12T13:02:36.269Z,5.00
2018-05-12T13:03:36.298Z,6.30
2018-05-12T13:04:36.335Z,4.90
2018-05-12T13:05:36.358Z,4.50
2018-05-12T13:06:36.387Z,6.30
2018-05-12T13:07:36.417Z,4.00